X  Close Metar Aviation Weather Data     KAST Astoria Regional Airport
Temperature
59°F Temperature
57°F Dewpoint
94% Humidity



Wind
3 MPH
5 KM/H
1 M/S
3 KTS



210°
SSW
Current Conditions

Overcast Overcast
Pressure 1015.92 (hPa) - 30 (inHg)
Visibility 9.9 (mile) - 16 (km)
Airport
Airport-code KAST

Location: Astoria Regional Airport
Distance: 20 (mi)

Metar:
KAST 191109Z AUTO 21003KT 10SM OVC015 15/14 A3000 RMK AO2 T01500139

Time: 09-19-2020 04:09 PDT